ADDS METAR Data INFO
IDs: Format: Raw Decoded Include TAF

Data at: 0102 UTC 21 Oct 2017

KMSS 210053Z AUTO 21010KT 10SM CLR 12/05 A3014 RMK AO2 SLP209 T01220050
KMSS 202353Z AUTO 21007KT 10SM CLR 12/06 A3014 RMK AO2 SLP207 T01170056 10189 20117 51007
KMSS 202253Z AUTO 23008KT 10SM CLR 14/05 A3014 RMK AO2 SLP207 T01440050
KMSS 202153Z AUTO 22008KT 10SM CLR 16/06 A3013 RMK AO2 SLP203 T01560056
KMSS 202053Z AUTO 23007KT 10SM CLR 18/04 A3012 RMK AO2 SLP199 T01830039 58008
KMSS 201953Z AUTO 24012G17KT 10SM CLR 19/03 A3013 RMK AO2 SLP203 T01890028
KMSS 201853Z AUTO 27010KT 10SM CLR 18/03 A3013 RMK AO2 SLP203 T01830028
KMSS 201753Z AUTO 27012G16KT 10SM CLR 18/03 A3014 RMK AO2 SLP207 T01780033 10178 20089 58010
KMSS 201653Z AUTO 26012KT 10SM CLR 17/03 A3015 RMK AO2 SLP211 T01670033
KMSS 201553Z AUTO 25012KT 10SM CLR 16/04 A3017 RMK AO2 SLP216 T01560039
KMSS 201453Z AUTO 25007KT 10SM CLR 13/04 A3017 RMK AO2 SLP218 T01330044 50015
KMSS 201353Z AUTO 27011KT 10SM CLR 12/04 A3018 RMK AO2 SLP221 T01220044
KMSS 201253Z AUTO 27012KT 10SM CLR 11/04 A3016 RMK AO2 SLP212 T01110044
KMSS 201153Z AUTO 24007KT 10SM CLR 09/04 A3012 RMK AO2 SLP203 T00890044 10100 20072 51027
KMSS 201053Z AUTO 24008KT 10SM CLR 09/04 A3010 RMK AO2 SLP193 T00890044
KMSS 200953Z AUTO 22007KT 10SM CLR 08/04 A3008 RMK AO2 SLP187 T00780044
KMSS 200853Z AUTO 24004KT 10SM CLR 09/04 A3004 RMK AO2 SLP175 T00890039 53011
KMSS 200753Z AUTO 22007KT 10SM CLR 08/04 A3002 RMK AO2 SLP167 T00830039
KMSS 200653Z AUTO 23005KT 10SM CLR 09/03 A3002 RMK AO2 SLP167 T00940033
KMSS 200553Z AUTO 22006KT 10SM CLR 10/03 A3001 RMK AO2 SLP164 T01000033 10172 20100 53013
KMSS 200453Z AUTO 23006KT 10SM CLR 13/02 A3000 RMK AO2 SLP159 T01330022 402110056
KMSS 200353Z AUTO 25009G16KT 10SM CLR 14/02 A2998 RMK AO2 SLP153 T01440022
KMSS 200253Z AUTO 25013G20KT 10SM CLR 16/05 A2997 RMK AO2 SLP150 T01560050 51022
KMSS 200153Z AUTO 25008KT 10SM CLR 16/10 A2995 RMK AO2 SLP142 T01610100
KMSS 200053Z AUTO 24010KT 10SM CLR 17/12 A2994 RMK AO2 SLP138 T01670122
KMSS 192353Z AUTO 22014G19KT 10SM CLR 17/12 A2991 RMK AO2 SLP129 T01670122 10211 20167 51016
KMSS 192253Z AUTO 23013KT 10SM CLR 17/12 A2990 RMK AO2 SLP125 T01720122
KMSS 192153Z AUTO 23013G22KT 10SM CLR 18/11 A2988 RMK AO2 PK WND 24029/2108 SLP120 T01830111
KMSS 192053Z AUTO 24016G30KT 10SM FEW050 19/10 A2986 RMK AO2 PK WND 22035/2035 SLP114 T01940100 55004
KMSS 191953Z AUTO 23024G31KT 10SM FEW070 20/09 A2986 RMK AO2 PK WND 24034/1915 SLP112 T02000094
KMSS 191853Z AUTO 23018G27KT 10SM CLR 20/10 A2984 RMK AO2 PK WND 22037/1754 SLP107 T02000100
KMSS 191753Z AUTO 23020G33KT 10SM CLR 21/09 A2987 RMK AO2 PK WND 24033/1749 SLP117 T02060089 10211 20139 58028
KMSS 191653Z AUTO 21020G31KT 10SM CLR 21/08 A2992 RMK AO2 PK WND 21031/1645 SLP132 T02060083
KMSS 191553Z AUTO 21017G26KT 10SM CLR 19/08 A2995 RMK AO2 PK WND 24030/1541 SLP144 T01940083
KMSS 191453Z AUTO 21015G22KT 10SM CLR 19/08 A2996 RMK AO2 PK WND 22029/1438 SLP147 T01890078 58019
KMSS 191353Z AUTO 21018G26KT 10SM CLR 18/07 A2998 RMK AO2 PK WND 20028/1329 SLP155 T01780072